Grand Mercury — HOOC — position and weather

sailwx.info

Track history (hours):
 
Tides and Currents Weather Stations Pressure Air Temp Water Temp Dewpoint Dewpoint Depression Visibility Wind Speed Wind Dir Waves Ship Positions

Grand Mercury

Last reported at 2015-Jun-24 12:32 UTC. Time now 2015-Jul-02 18:14 UTC.
Position N 24°13' W 118°27'.
Warning: this ship's position is 8 days out of date.

Length 200 m; draft 8.5 m.

Type: Cargo ship. MMSI: 355649000.

Date/timePositionNaut miles runAvg speedWind from/ knotsBaromVisibWave heightAir tempDewpointWater temp
2015-Jun-24 12:32N 24°13' W 118°27'10416.9
2015-Jun-24 06:21N 25°05' W 120°07'1316.9
2015-Jun-24 05:33N 25°13' W 120°19'1917.0
2015-Jun-24 04:26N 25°24' W 120°36'1516.9
2015-Jun-24 03:33N 25°33' W 120°49'2016.9
2015-Jun-24 02:24N 25°46' W 121°06'1518.2
2015-Jun-24 01:33N 25°55' W 121°20'1816.9
2015-Jun-24 00:30N 26°06' W 121°35'2216.8
2015-Jun-23 23:12N 26°20' W 121°54'1416.8
2015-Jun-23 22:24N 26°28' W 122°06'1416.6
2015-Jun-23 21:33N 26°37' W 122°18'1716.8
2015-Jun-23 20:33N 26°47' W 122°33'1716.7
2015-Jun-23 19:33N 26°58' W 122°47'816.7
2015-Jun-23 19:05N 27°02' W 122°54'  
Track history (hours):
 
Tides and Currents Weather Stations Pressure Air Temp Water Temp Dewpoint Dewpoint Depression Visibility Wind Speed Wind Dir Waves Ship Positions

Grand Mercury

Last reported at 2015-Jun-24 12:32 UTC. Time now 2015-Jul-02 18:14 UTC.
Position N 24°13' W 118°27'.
Warning: this ship's position is 8 days out of date.

Length 200 m; draft 8.5 m.

Type: Cargo ship. MMSI: 355649000.

Date/timePositionNaut miles runAvg speedWind from/ knotsBaromVisibWave heightAir tempDewpointWater temp
2015-Jun-24 12:32N 24°13' W 118°27'10416.9
2015-Jun-24 06:21N 25°05' W 120°07'1316.9
2015-Jun-24 05:33N 25°13' W 120°19'1917.0
2015-Jun-24 04:26N 25°24' W 120°36'1516.9
2015-Jun-24 03:33N 25°33' W 120°49'2016.9
2015-Jun-24 02:24N 25°46' W 121°06'1518.2
2015-Jun-24 01:33N 25°55' W 121°20'1816.9
2015-Jun-24 00:30N 26°06' W 121°35'2216.8
2015-Jun-23 23:12N 26°20' W 121°54'1416.8
2015-Jun-23 22:24N 26°28' W 122°06'1416.6
2015-Jun-23 21:33N 26°37' W 122°18'1716.8
2015-Jun-23 20:33N 26°47' W 122°33'1716.7
2015-Jun-23 19:33N 26°58' W 122°47'816.7
2015-Jun-23 19:05N 27°02' W 122°54'  

Dump ship's entire track history